createdAt,value
2018-06-23T00:01:01.391Z,12.80
2018-06-23T00:03:30.488Z,12.80
2018-06-23T00:05:59.343Z,12.70
2018-06-23T00:08:28.258Z,12.70
2018-06-23T00:10:57.429Z,12.60
2018-06-23T00:13:26.582Z,12.60
2018-06-23T00:15:55.427Z,12.60
2018-06-23T00:18:24.249Z,12.50
2018-06-23T00:20:53.176Z,12.50
2018-06-23T00:23:22.015Z,12.40
2018-06-23T00:25:56.165Z,12.40
2018-06-23T00:28:25.058Z,12.30
2018-06-23T00:30:53.938Z,12.20
2018-06-23T00:33:22.769Z,12.20
2018-06-23T00:35:51.668Z,12.10
2018-06-23T00:38:20.461Z,12.00
2018-06-23T00:40:49.331Z,12.00
2018-06-23T00:43:18.286Z,11.90
2018-06-23T00:45:47.052Z,11.90
2018-06-23T00:48:15.889Z,11.90
2018-06-23T00:50:44.807Z,11.80
2018-06-23T00:53:13.916Z,11.80
2018-06-23T00:55:42.718Z,11.70
2018-06-23T01:00:39.875Z,11.60
2018-06-23T01:03:08.692Z,11.60
2018-06-23T01:05:37.487Z,11.50
2018-06-23T01:08:06.405Z,11.50
2018-06-23T01:10:35.249Z,11.40
2018-06-23T01:13:04.124Z,11.40
2018-06-23T01:15:32.864Z,11.30
2018-06-23T01:18:01.714Z,11.30
2018-06-23T01:20:30.510Z,11.30
2018-06-23T01:22:59.449Z,11.30
2018-06-23T01:25:28.231Z,11.20
2018-06-23T01:28:13.193Z,11.20
2018-06-23T01:30:41.995Z,11.10
2018-06-23T01:33:10.845Z,11.10
2018-06-23T01:35:39.654Z,11.00
2018-06-23T01:38:08.481Z,11.00
2018-06-23T01:40:37.336Z,11.00
2018-06-23T01:43:06.291Z,11.00
2018-06-23T01:45:35.095Z,11.00
2018-06-23T01:48:03.901Z,10.90
2018-06-23T01:50:32.629Z,10.90
2018-06-23T01:53:01.467Z,10.90
2018-06-23T01:55:30.407Z,10.80
2018-06-23T01:57:59.247Z,10.80
2018-06-23T02:00:27.995Z,10.70
2018-06-23T02:02:56.734Z,10.70
2018-06-23T02:05:25.598Z,10.70
2018-06-23T02:07:54.456Z,10.60
2018-06-23T02:10:23.325Z,10.70
2018-06-23T02:12:52.061Z,10.60
2018-06-23T02:15:25.285Z,10.60
2018-06-23T02:17:59.494Z,10.60
2018-06-23T02:20:33.568Z,10.60
2018-06-23T02:23:07.674Z,10.60
2018-06-23T02:25:41.747Z,10.60
2018-06-23T02:28:15.929Z,10.50
2018-06-23T02:30:50.140Z,10.50
2018-06-23T02:34:24.808Z,10.40
2018-06-23T02:36:53.763Z,10.40
2018-06-23T02:39:22.565Z,10.40
2018-06-23T02:41:51.477Z,10.40
2018-06-23T02:44:20.791Z,10.50
2018-06-23T02:46:49.633Z,10.50
2018-06-23T02:49:18.547Z,10.50
2018-06-23T02:51:47.399Z,10.60
2018-06-23T02:54:16.349Z,10.60
2018-06-23T02:56:45.190Z,10.60
2018-06-23T02:59:14.065Z,10.60
2018-06-23T03:01:42.901Z,10.60
2018-06-23T03:04:12.515Z,10.50
2018-06-23T03:06:41.353Z,10.50
2018-06-23T03:11:38.684Z,10.40
2018-06-23T03:14:07.484Z,10.50
2018-06-23T03:16:36.334Z,10.50
2018-06-23T03:19:05.395Z,10.50
2018-06-23T03:21:34.169Z,10.50
2018-06-23T03:24:03.039Z,10.70
2018-06-23T03:26:31.804Z,10.70
2018-06-23T03:29:00.633Z,10.80
2018-06-23T03:31:29.400Z,10.80
2018-06-23T03:33:58.154Z,10.90
2018-06-23T03:36:26.991Z,10.90
2018-06-23T03:38:55.817Z,11.00
2018-06-23T03:41:24.610Z,11.10
2018-06-23T03:43:53.517Z,11.20
2018-06-23T03:46:22.271Z,11.20
2018-06-23T03:48:51.083Z,11.20
2018-06-23T03:51:20.120Z,11.30
2018-06-23T03:53:48.926Z,11.30
2018-06-23T03:56:17.772Z,11.40
2018-06-23T03:58:46.600Z,11.40
2018-06-23T04:01:15.347Z,11.40
2018-06-23T04:03:44.206Z,11.30
2018-06-23T04:06:13.028Z,11.40
2018-06-23T04:08:41.938Z,11.40
2018-06-23T04:11:10.818Z,11.40
2018-06-23T04:13:39.723Z,11.50
2018-06-23T04:16:08.597Z,11.50
2018-06-23T04:18:37.446Z,11.60
2018-06-23T04:21:06.289Z,11.70
2018-06-23T04:23:35.081Z,11.80
2018-06-23T04:26:03.903Z,11.90
2018-06-23T04:28:32.749Z,12.00
2018-06-23T04:31:01.497Z,12.20
2018-06-23T04:33:30.441Z,12.40
2018-06-23T04:35:59.177Z,12.60
2018-06-23T04:38:27.957Z,12.90
2018-06-23T04:40:56.751Z,13.10
2018-06-23T04:45:54.127Z,13.40
2018-06-23T04:48:23.009Z,13.60
2018-06-23T04:50:51.767Z,13.90
2018-06-23T04:53:20.537Z,14.10
2018-06-23T04:55:50.781Z,14.00
2018-06-23T04:58:19.742Z,13.90
2018-06-23T05:00:48.563Z,13.80
2018-06-23T05:03:17.510Z,13.70
2018-06-23T05:05:46.292Z,13.70
2018-06-23T05:08:15.106Z,13.80
2018-06-23T05:10:43.937Z,13.80
2018-06-23T05:13:12.889Z,13.90
2018-06-23T05:15:41.689Z,13.90
2018-06-23T05:18:10.495Z,13.90
2018-06-23T05:20:41.305Z,13.90
2018-06-23T05:23:10.024Z,13.70
2018-06-23T05:25:38.769Z,13.80
2018-06-23T05:28:07.587Z,13.70
2018-06-23T05:30:36.672Z,13.90
2018-06-23T05:33:05.807Z,13.90
2018-06-23T05:35:34.745Z,13.80
2018-06-23T05:38:03.804Z,13.80
2018-06-23T05:40:32.700Z,13.60
2018-06-23T05:43:07.965Z,13.60
2018-06-23T05:45:36.909Z,13.70
2018-06-23T05:48:05.825Z,13.90
2018-06-23T05:50:34.683Z,14.10
2018-06-23T05:53:03.553Z,14.30
2018-06-23T05:55:32.439Z,14.30
2018-06-23T05:58:01.339Z,14.40
2018-06-23T06:00:30.192Z,14.60
2018-06-23T06:02:58.997Z,14.90
2018-06-23T06:05:27.837Z,15.40
2018-06-23T06:07:56.673Z,16.20
2018-06-23T06:10:25.534Z,17.00
2018-06-23T06:12:54.536Z,18.30
2018-06-23T06:15:23.411Z,19.70
2018-06-23T06:17:52.222Z,20.20
2018-06-23T06:20:21.048Z,20.40
2018-06-23T06:22:49.885Z,20.50
2018-06-23T06:25:20.713Z,20.90
2018-06-23T06:27:49.888Z,21.00
2018-06-23T06:30:18.726Z,21.40
2018-06-23T06:32:47.697Z,21.90
2018-06-23T06:35:16.556Z,21.60
2018-06-23T06:37:45.409Z,20.60
2018-06-23T06:40:14.443Z,20.00
2018-06-23T06:42:43.620Z,19.10
2018-06-23T06:45:12.426Z,18.80
2018-06-23T06:47:41.473Z,18.80
2018-06-23T06:50:10.330Z,19.30
2018-06-23T06:52:41.249Z,19.80
2018-06-23T06:55:10.128Z,20.50
2018-06-23T06:57:38.933Z,21.10
2018-06-23T07:00:07.760Z,20.90
2018-06-23T07:02:36.712Z,20.90
2018-06-23T07:05:05.834Z,20.90
2018-06-23T07:07:34.716Z,20.30
2018-06-23T07:12:44.163Z,20.10
2018-06-23T07:15:15.831Z,18.80
2018-06-23T07:17:45.184Z,18.20
2018-06-23T07:20:14.538Z,17.60
2018-06-23T07:22:44.188Z,17.70
2018-06-23T07:25:12.940Z,17.60
2018-06-23T07:27:41.824Z,17.70
2018-06-23T07:30:10.630Z,17.70
2018-06-23T07:32:39.477Z,17.40
2018-06-23T07:35:08.329Z,17.00
2018-06-23T07:37:36.950Z,16.60
2018-06-23T07:40:05.982Z,15.80
2018-06-23T07:42:34.754Z,15.30
2018-06-23T07:45:03.583Z,15.40
2018-06-23T07:47:32.782Z,16.10
2018-06-23T07:50:01.697Z,16.60
2018-06-23T07:52:30.676Z,17.00
2018-06-23T07:54:59.361Z,17.20
2018-06-23T07:57:28.266Z,17.30
2018-06-23T07:59:57.047Z,17.30
2018-06-23T08:02:26.053Z,17.50
2018-06-23T08:04:55.070Z,17.40
2018-06-23T08:07:23.992Z,17.70
2018-06-23T08:09:52.900Z,17.40
2018-06-23T08:12:21.859Z,17.00
2018-06-23T08:14:50.603Z,17.00
2018-06-23T08:17:19.492Z,16.80
2018-06-23T08:19:48.272Z,16.50
2018-06-23T08:22:17.058Z,16.60
2018-06-23T08:24:46.656Z,16.90
2018-06-23T08:27:15.688Z,17.10
2018-06-23T08:29:45.068Z,17.20
2018-06-23T08:32:14.042Z,16.90
2018-06-23T08:34:42.872Z,16.70
2018-06-23T08:37:11.660Z,16.60
2018-06-23T08:39:40.912Z,16.60
2018-06-23T08:42:09.836Z,16.90
2018-06-23T08:44:38.884Z,16.90
2018-06-23T08:47:07.858Z,17.00
2018-06-23T08:49:36.678Z,17.30
2018-06-23T08:52:05.612Z,17.30
2018-06-23T08:54:34.709Z,17.00
2018-06-23T08:57:03.668Z,16.90
2018-06-23T08:59:32.462Z,16.80
2018-06-23T09:02:01.300Z,16.70
2018-06-23T09:04:30.150Z,16.60
2018-06-23T09:06:59.035Z,17.10
2018-06-23T09:09:28.518Z,17.50
2018-06-23T09:11:57.414Z,17.20
2018-06-23T09:14:26.383Z,17.00
2018-06-23T09:16:55.185Z,16.90
2018-06-23T09:19:24.125Z,16.90
2018-06-23T09:21:52.918Z,17.10
2018-06-23T09:24:21.832Z,17.50
2018-06-23T09:26:50.697Z,17.80
2018-06-23T09:29:19.654Z,17.90
2018-06-23T09:31:48.471Z,18.00
2018-06-23T09:34:17.432Z,17.90
2018-06-23T09:36:46.354Z,17.70
2018-06-23T09:39:15.150Z,17.30
2018-06-23T09:41:44.202Z,17.20
2018-06-23T09:44:12.967Z,17.40
2018-06-23T09:46:41.810Z,17.70
2018-06-23T09:49:10.750Z,18.10
2018-06-23T09:51:39.603Z,18.20
2018-06-23T09:54:08.458Z,18.40
2018-06-23T09:56:37.252Z,18.50
2018-06-23T09:59:06.222Z,18.70
2018-06-23T10:01:35.520Z,18.80
2018-06-23T10:04:04.428Z,18.80
2018-06-23T10:06:33.290Z,18.90
2018-06-23T10:09:02.155Z,18.50
2018-06-23T10:11:31.097Z,17.90
2018-06-23T10:13:59.919Z,18.00
2018-06-23T10:16:28.731Z,17.90
2018-06-23T10:18:57.546Z,18.10
2018-06-23T10:21:26.374Z,18.50
2018-06-23T10:23:55.226Z,18.80
2018-06-23T10:26:24.047Z,18.90
2018-06-23T10:28:52.944Z,19.10
2018-06-23T10:31:21.799Z,19.10
2018-06-23T10:33:50.634Z,19.00
2018-06-23T10:36:19.478Z,19.30
2018-06-23T10:38:48.404Z,19.60
2018-06-23T10:41:17.293Z,19.80
2018-06-23T10:43:46.718Z,19.90
2018-06-23T10:46:15.542Z,20.00
2018-06-23T10:48:44.542Z,19.90
2018-06-23T10:53:42.014Z,19.30
2018-06-23T10:56:10.802Z,19.70
2018-06-23T10:58:39.851Z,20.00
2018-06-23T11:01:08.849Z,20.00
2018-06-23T11:03:37.828Z,19.80
2018-06-23T11:06:06.627Z,19.80
2018-06-23T11:08:35.565Z,19.80
2018-06-23T11:13:33.116Z,20.30
2018-06-23T11:16:02.032Z,20.30
2018-06-23T11:18:30.918Z,19.90
2018-06-23T11:23:28.232Z,19.90
2018-06-23T11:25:57.039Z,19.80
2018-06-23T11:28:25.938Z,19.90
2018-06-23T11:30:55.054Z,20.70
2018-06-23T11:33:23.894Z,21.40
2018-06-23T11:35:52.718Z,22.80
2018-06-23T11:38:21.698Z,23.60
2018-06-23T11:40:50.354Z,23.30
2018-06-23T11:43:19.133Z,23.30
2018-06-23T11:45:48.092Z,22.60
2018-06-23T11:48:16.862Z,22.10
2018-06-23T11:50:45.660Z,21.80
2018-06-23T11:53:14.550Z,21.30
2018-06-23T11:55:43.392Z,20.80
2018-06-23T11:58:12.193Z,20.30
2018-06-23T12:00:41.061Z,20.70
2018-06-23T12:03:09.883Z,20.90
2018-06-23T12:05:38.713Z,21.30
2018-06-23T12:08:07.566Z,21.70
2018-06-23T12:10:36.330Z,21.70
2018-06-23T12:13:05.176Z,21.40
2018-06-23T12:15:33.952Z,21.30
2018-06-23T12:18:02.857Z,21.00
2018-06-23T12:20:31.898Z,20.60
2018-06-23T12:23:00.765Z,20.20
2018-06-23T12:25:29.624Z,20.10
2018-06-23T12:27:58.407Z,20.50
2018-06-23T12:30:27.417Z,20.70
2018-06-23T12:32:56.254Z,21.50
2018-06-23T12:35:25.067Z,22.40
2018-06-23T12:37:54.145Z,23.80
2018-06-23T12:40:23.078Z,24.30
2018-06-23T12:42:52.152Z,24.80
2018-06-23T12:45:22.254Z,25.40
2018-06-23T12:47:51.100Z,26.20
2018-06-23T12:50:19.971Z,26.50
2018-06-23T12:52:48.815Z,24.80
2018-06-23T12:55:17.769Z,23.10
2018-06-23T12:57:46.620Z,22.60
2018-06-23T13:00:15.421Z,22.20
2018-06-23T13:02:44.282Z,21.70
2018-06-23T13:05:13.130Z,21.10
2018-06-23T13:07:41.941Z,20.50
2018-06-23T13:10:10.771Z,20.10
2018-06-23T13:12:39.670Z,19.80
2018-06-23T13:15:08.866Z,19.80
2018-06-23T13:17:37.633Z,19.50
2018-06-23T13:20:06.743Z,19.20
2018-06-23T13:22:35.679Z,19.10
2018-06-23T13:25:04.744Z,19.10
2018-06-23T13:27:33.561Z,19.10
2018-06-23T13:30:02.427Z,18.90
2018-06-23T13:32:31.652Z,18.70
2018-06-23T13:35:00.506Z,18.80
2018-06-23T13:37:29.368Z,18.80
2018-06-23T13:39:58.188Z,18.80
2018-06-23T13:42:27.008Z,18.60
2018-06-23T13:44:56.051Z,18.60
2018-06-23T13:47:24.888Z,18.70
2018-06-23T13:49:53.834Z,18.80
2018-06-23T13:52:22.644Z,19.00
2018-06-23T13:54:51.468Z,19.00
2018-06-23T13:57:20.367Z,19.10
2018-06-23T13:59:49.332Z,19.50
2018-06-23T14:02:18.218Z,19.60
2018-06-23T14:04:47.021Z,19.50
2018-06-23T14:07:15.909Z,19.50
2018-06-23T14:09:44.929Z,19.20
2018-06-23T14:12:13.791Z,18.80
2018-06-23T14:14:42.806Z,18.60
2018-06-23T14:17:11.566Z,18.50
2018-06-23T14:19:40.449Z,18.50
2018-06-23T14:22:09.307Z,18.70
2018-06-23T14:24:38.161Z,18.90
2018-06-23T14:27:06.943Z,19.00
2018-06-23T14:29:35.878Z,18.90
2018-06-23T14:32:04.886Z,18.80
2018-06-23T14:34:33.478Z,18.70
2018-06-23T14:37:02.685Z,18.50
2018-06-23T14:39:31.729Z,18.40
2018-06-23T14:42:00.650Z,18.40
2018-06-23T14:44:29.624Z,18.30
2018-06-23T14:46:58.473Z,18.30
2018-06-23T14:51:55.727Z,18.60
2018-06-23T14:54:24.590Z,18.70
2018-06-23T14:56:53.514Z,18.60
2018-06-23T14:59:22.247Z,18.60
2018-06-23T15:01:51.254Z,18.50
2018-06-23T15:04:20.070Z,18.70
2018-06-23T15:06:48.906Z,18.60
2018-06-23T15:09:28.727Z,18.60
2018-06-23T15:13:09.407Z,18.20
2018-06-23T15:15:42.640Z,18.00
2018-06-23T15:18:11.413Z,18.00
2018-06-23T15:20:40.256Z,18.10
2018-06-23T15:23:09.142Z,18.40
2018-06-23T15:25:38.087Z,18.70
2018-06-23T15:28:06.885Z,18.60
2018-06-23T15:30:35.680Z,18.50
2018-06-23T15:33:04.685Z,18.40
2018-06-23T15:35:33.483Z,18.20
2018-06-23T15:38:02.313Z,18.10
2018-06-23T15:40:31.260Z,18.00
2018-06-23T15:43:00.005Z,18.00
2018-06-23T15:45:28.932Z,17.70
2018-06-23T15:47:57.871Z,17.40
2018-06-23T15:50:26.692Z,17.30
2018-06-23T15:52:55.523Z,17.30
2018-06-23T15:55:25.457Z,17.20
2018-06-23T16:00:22.701Z,17.40
2018-06-23T16:02:51.606Z,17.30
2018-06-23T16:05:20.839Z,17.10
2018-06-23T16:10:21.446Z,17.10
2018-06-23T16:12:50.449Z,17.00
2018-06-23T16:15:19.334Z,16.80
2018-06-23T16:17:48.162Z,16.80
2018-06-23T16:20:17.091Z,16.90
2018-06-23T16:22:46.779Z,16.80
2018-06-23T16:25:16.142Z,16.70
2018-06-23T16:27:45.000Z,16.80
2018-06-23T16:30:13.954Z,16.80
2018-06-23T16:32:43.026Z,16.90
2018-06-23T16:35:12.204Z,17.00
2018-06-23T16:37:40.815Z,17.10
2018-06-23T16:42:38.187Z,17.10
2018-06-23T16:47:35.775Z,17.20
2018-06-23T16:50:05.117Z,17.20
2018-06-23T16:52:34.098Z,17.20
2018-06-23T16:55:03.118Z,17.10
2018-06-23T16:57:32.143Z,17.10
2018-06-23T17:00:00.990Z,17.00
2018-06-23T17:02:30.186Z,16.90
2018-06-23T17:04:59.253Z,16.80
2018-06-23T17:07:28.110Z,16.70
2018-06-23T17:09:57.008Z,16.60
2018-06-23T17:12:25.941Z,16.50
2018-06-23T17:14:58.120Z,16.50
2018-06-23T17:17:26.963Z,16.50
2018-06-23T17:19:55.780Z,16.60
2018-06-23T17:22:24.671Z,16.60
2018-06-23T17:24:53.545Z,16.50
2018-06-23T17:27:22.484Z,16.40
2018-06-23T17:29:51.494Z,16.40
2018-06-23T17:32:20.523Z,16.40
2018-06-23T17:34:49.367Z,16.40
2018-06-23T17:37:18.268Z,16.30
2018-06-23T17:39:47.067Z,16.20
2018-06-23T17:42:15.838Z,16.10
2018-06-23T17:44:44.693Z,16.10
2018-06-23T17:47:13.726Z,16.20
2018-06-23T17:49:42.780Z,16.30
2018-06-23T17:52:11.787Z,16.30
2018-06-23T17:54:40.722Z,16.30
2018-06-23T17:59:38.678Z,16.30
2018-06-23T18:02:07.755Z,16.20
2018-06-23T18:04:36.601Z,16.10
2018-06-23T18:07:05.698Z,16.20
2018-06-23T18:09:34.772Z,16.10
2018-06-23T18:12:09.357Z,16.00
2018-06-23T18:14:38.316Z,16.00
2018-06-23T18:17:07.208Z,15.80
2018-06-23T18:19:37.242Z,15.80
2018-06-23T18:22:06.298Z,15.80
2018-06-23T18:24:35.442Z,15.90
2018-06-23T18:27:04.336Z,15.90
2018-06-23T18:29:33.270Z,15.90
2018-06-23T18:32:02.094Z,15.80
2018-06-23T18:36:59.321Z,15.90
2018-06-23T18:39:28.181Z,15.90
2018-06-23T18:41:57.108Z,15.90
2018-06-23T18:44:26.179Z,16.00
2018-06-23T18:46:55.145Z,16.00
2018-06-23T18:49:26.443Z,16.00
2018-06-23T18:51:55.406Z,16.00
2018-06-23T18:54:24.707Z,16.00
2018-06-23T18:56:53.482Z,16.00
2018-06-23T18:59:43.401Z,16.00
2018-06-23T19:02:12.329Z,16.00
2018-06-23T19:04:41.285Z,16.00
2018-06-23T19:07:10.195Z,16.00
2018-06-23T19:09:39.359Z,15.90
2018-06-23T19:12:08.210Z,15.90
2018-06-23T19:14:37.325Z,15.90
2018-06-23T19:17:06.330Z,15.80
2018-06-23T19:19:35.427Z,15.80
2018-06-23T19:22:04.247Z,15.70
2018-06-23T19:24:33.064Z,15.70
2018-06-23T19:27:02.205Z,15.60
2018-06-23T19:29:31.080Z,15.60
2018-06-23T19:31:59.964Z,15.60
2018-06-23T19:34:28.918Z,15.60
2018-06-23T19:36:57.868Z,15.60
2018-06-23T19:39:26.830Z,15.60
2018-06-23T19:41:55.914Z,15.60
2018-06-23T19:44:25.080Z,15.60
2018-06-23T19:46:54.146Z,15.50
2018-06-23T19:51:52.033Z,15.60
2018-06-23T19:54:21.030Z,15.50
2018-06-23T19:56:49.988Z,15.50
2018-06-23T19:59:18.864Z,15.50
2018-06-23T20:01:47.732Z,15.50
2018-06-23T20:04:16.614Z,15.50
2018-06-23T20:06:45.429Z,15.50
2018-06-23T20:09:14.274Z,15.50
2018-06-23T20:11:43.230Z,15.50
2018-06-23T20:14:12.068Z,15.50
2018-06-23T20:16:45.790Z,15.50
2018-06-23T20:19:14.658Z,15.50
2018-06-23T20:21:43.580Z,15.40
2018-06-23T20:24:12.479Z,15.40
2018-06-23T20:26:41.350Z,15.40
2018-06-23T20:29:10.178Z,15.40
2018-06-23T20:31:39.102Z,15.40
2018-06-23T20:34:07.904Z,15.30
2018-06-23T20:36:36.754Z,15.30
2018-06-23T20:39:07.728Z,15.30
2018-06-23T20:41:36.566Z,15.30
2018-06-23T20:44:05.661Z,15.30
2018-06-23T20:46:36.756Z,15.20
2018-06-23T20:49:05.684Z,15.20
2018-06-23T20:51:34.644Z,15.20
2018-06-23T20:54:03.544Z,15.20
2018-06-23T20:56:32.468Z,15.20
2018-06-23T21:01:29.624Z,15.20
2018-06-23T21:03:58.350Z,15.20
2018-06-23T21:06:27.114Z,15.20
2018-06-23T21:08:56.052Z,15.20
2018-06-23T21:11:24.968Z,15.20
2018-06-23T21:13:53.798Z,15.20
2018-06-23T21:16:22.649Z,15.20
2018-06-23T21:18:51.459Z,15.20
2018-06-23T21:21:20.268Z,15.10
2018-06-23T21:23:49.093Z,15.20
2018-06-23T21:26:19.993Z,15.10
2018-06-23T21:28:48.770Z,15.10
2018-06-23T21:31:17.756Z,15.10
2018-06-23T21:33:46.691Z,15.10
2018-06-23T21:36:15.486Z,15.10
2018-06-23T21:38:44.468Z,15.10
2018-06-23T21:41:13.544Z,15.10
2018-06-23T21:43:42.598Z,15.10
2018-06-23T21:46:11.396Z,15.10
2018-06-23T21:48:40.184Z,15.00
2018-06-23T21:51:08.987Z,15.00
2018-06-23T21:53:37.880Z,15.00
2018-06-23T21:56:06.782Z,15.00
2018-06-23T21:58:35.622Z,15.00
2018-06-23T22:01:04.413Z,15.00
2018-06-23T22:03:33.221Z,15.00
2018-06-23T22:06:02.058Z,14.90
2018-06-23T22:08:30.884Z,14.90
2018-06-23T22:10:59.859Z,14.90
2018-06-23T22:13:35.360Z,14.90
2018-06-23T22:16:04.185Z,14.80
2018-06-23T22:18:33.181Z,14.80
2018-06-23T22:21:02.016Z,14.80
2018-06-23T22:23:30.862Z,14.80
2018-06-23T22:25:59.697Z,14.70
2018-06-23T22:28:28.543Z,14.70
2018-06-23T22:30:57.474Z,14.70
2018-06-23T22:33:26.306Z,14.70
2018-06-23T22:35:55.109Z,14.70
2018-06-23T22:38:23.998Z,14.60
2018-06-23T22:40:52.868Z,14.60
2018-06-23T22:43:21.709Z,14.60
2018-06-23T22:45:50.769Z,14.60
2018-06-23T22:48:19.585Z,14.60
2018-06-23T22:50:48.427Z,14.50
2018-06-23T22:53:17.174Z,14.50
2018-06-23T22:55:46.003Z,14.50
2018-06-23T22:58:14.874Z,14.50
2018-06-23T23:00:43.655Z,14.40
2018-06-23T23:05:41.003Z,14.40
2018-06-23T23:08:09.890Z,14.40
2018-06-23T23:10:38.813Z,14.30
2018-06-23T23:15:35.991Z,14.30
2018-06-23T23:18:10.909Z,14.30
2018-06-23T23:20:42.652Z,14.30
2018-06-23T23:23:11.617Z,14.30
2018-06-23T23:25:40.446Z,14.30
2018-06-23T23:28:09.300Z,14.30
2018-06-23T23:30:38.212Z,14.30
2018-06-23T23:33:07.033Z,14.30
2018-06-23T23:35:35.833Z,14.20
2018-06-23T23:38:04.749Z,14.20
2018-06-23T23:40:33.724Z,14.20
2018-06-23T23:43:02.507Z,14.20
2018-06-23T23:45:31.318Z,14.20
2018-06-23T23:48:00.135Z,14.20
2018-06-23T23:50:28.933Z,14.20
2018-06-23T23:52:57.734Z,14.20
2018-06-23T23:55:26.499Z,14.20
2018-06-23T23:57:55.252Z,14.20
